Strona główna
METAR-TAF:

METAR-TAF

Lotnisko :

Schwäbisch Hall, Niemcy

Szerokość geograficzna: 49-07-06N, Długość geograficzna: 9-47-02E, wysokość: 398 m

Aktualna obserwacja pogody

Raport powstał 41 minut temu, godzina 08:50 UTC
Wiatr 9 kt od zachód, zmienny między południowy zachód i zachodnio-północny zachód
Temperatura 23°C
Wilgotność 73%
Ciśnienie 1022 hPa
Widzialność 10 km lub więcej
Rozproszone chmury na wysokości 2300 ft

METAR: EDTY 210850Z 26009KT 230V290 9999 SCT023 23/18 Q1022

czas: 11:31 (09:31 UTC)

Prognoza

Raport powstał 1 godzina i 31 minut temu, godzina 08:00 UTC
Prognoza ważna od 21 godzina 09 UTC do 21 godzina 18 UTC
Wiatr 5 kt od zachodnio-południowy zachód
Widzialność 10 km lub więcej
Rozproszone chmury na wysokości 3000 ft
Stopniowe zmiany
od 21 godzina 11 UTC do 21 godzina 13 UTC
Wiatr 10 kt od zachodnio-północny zachód
Stopniowe zmiany
od 21 godzina 16 UTC do 21 godzina 18 UTC
Wiatr 5 kt od zachodnio-północny zachód

TAF: EDTY 210800Z 2109/2118 24005KT 9999 SCT030 BECMG 2111/2113 30010KT BECMG 2116/2118 29005KT

Obserwacja i prognoza pogody dla ponad 4000 lotnisk (raport METAR i TAF).

Dostępne stacje oznaczono żółtymi i czerwonymi punktami na mapie.

Najedź kursorem aby zobaczyć nazwę stacji.

Kliknij aby zobaczyć obserwacje i prognozy pogody.

Aby zmienić mapę: kliknij na zielony przycisk z czarnym krzyżykiem, aby powiększyć; na zielony przycisk z myślnikiem, aby pomniejszyć; na zielone strzałki, aby przejść do map sąsiednich.


METAR-TAF: